sensor_id;sensor_type;location;lat;lon;timestamp;P1;durP1;ratioP1;P2;durP2;ratioP2
42518;SDS011;28147;47.520;18.920;2023-06-14T00:00:37;2.78;;;1.63;;
42518;SDS011;28147;47.520;18.920;2023-06-14T00:03:09;4.28;;;2.10;;
42518;SDS011;28147;47.520;18.920;2023-06-14T00:05:36;3.53;;;1.83;;
42518;SDS011;28147;47.520;18.920;2023-06-14T00:08:06;3.85;;;2.10;;
42518;SDS011;28147;47.520;18.920;2023-06-14T00:10:35;3.67;;;1.98;;
42518;SDS011;28147;47.520;18.920;2023-06-14T00:13:03;3.78;;;1.98;;
42518;SDS011;28147;47.520;18.920;2023-06-14T00:15:30;6.35;;;2.25;;
42518;SDS011;28147;47.520;18.920;2023-06-14T00:17:56;6.13;;;2.40;;
42518;SDS011;28147;47.520;18.920;2023-06-14T00:20:26;4.78;;;2.08;;
42518;SDS011;28147;47.520;18.920;2023-06-14T00:22:52;3.15;;;1.88;;
42518;SDS011;28147;47.520;18.920;2023-06-14T00:25:19;5.25;;;2.03;;
42518;SDS011;28147;47.520;18.920;2023-06-14T00:27:44;4.28;;;2.00;;
42518;SDS011;28147;47.520;18.920;2023-06-14T00:30:10;4.50;;;2.25;;
42518;SDS011;28147;47.520;18.920;2023-06-14T00:32:36;3.65;;;1.95;;
42518;SDS011;28147;47.520;18.920;2023-06-14T00:35:01;3.53;;;1.83;;
42518;SDS011;28147;47.520;18.920;2023-06-14T00:37:27;3.50;;;1.98;;
42518;SDS011;28147;47.520;18.920;2023-06-14T00:39:52;4.20;;;2.28;;
42518;SDS011;28147;47.520;18.920;2023-06-14T00:42:27;4.50;;;2.05;;
42518;SDS011;28147;47.520;18.920;2023-06-14T00:44:53;7.45;;;2.00;;
42518;SDS011;28147;47.520;18.920;2023-06-14T00:47:19;3.65;;;2.05;;
42518;SDS011;28147;47.520;18.920;2023-06-14T00:49:46;4.43;;;1.90;;
42518;SDS011;28147;47.520;18.920;2023-06-14T00:52:12;5.50;;;2.90;;
42518;SDS011;28147;47.520;18.920;2023-06-14T00:54:40;3.42;;;2.38;;
42518;SDS011;28147;47.520;18.920;2023-06-14T00:57:06;4.25;;;2.42;;
42518;SDS011;28147;47.520;18.920;2023-06-14T00:59:32;5.18;;;2.17;;
42518;SDS011;28147;47.520;18.920;2023-06-14T01:01:58;4.13;;;2.45;;
42518;SDS011;28147;47.520;18.920;2023-06-14T01:04:24;5.60;;;2.17;;
42518;SDS011;28147;47.520;18.920;2023-06-14T01:06:53;4.22;;;2.20;;
42518;SDS011;28147;47.520;18.920;2023-06-14T01:11:59;4.55;;;2.42;;
42518;SDS011;28147;47.520;18.920;2023-06-14T01:14:31;3.78;;;2.30;;
42518;SDS011;28147;47.520;18.920;2023-06-14T01:16:58;5.05;;;2.17;;
42518;SDS011;28147;47.520;18.920;2023-06-14T01:19:25;4.78;;;2.35;;
42518;SDS011;28147;47.520;18.920;2023-06-14T01:21:53;4.28;;;2.33;;
42518;SDS011;28147;47.520;18.920;2023-06-14T01:24:20;4.07;;;2.50;;
42518;SDS011;28147;47.520;18.920;2023-06-14T01:26:51;4.22;;;2.45;;
42518;SDS011;28147;47.520;18.920;2023-06-14T01:29:22;6.63;;;3.50;;
42518;SDS011;28147;47.520;18.920;2023-06-14T01:31:49;4.15;;;2.38;;
42518;SDS011;28147;47.520;18.920;2023-06-14T01:34:15;4.85;;;2.80;;
42518;SDS011;28147;47.520;18.920;2023-06-14T01:36:41;6.32;;;3.05;;
42518;SDS011;28147;47.520;18.920;2023-06-14T01:39:10;4.57;;;2.60;;
42518;SDS011;28147;47.520;18.920;2023-06-14T01:41:38;6.30;;;3.28;;
42518;SDS011;28147;47.520;18.920;2023-06-14T01:44:05;5.38;;;2.83;;
42518;SDS011;28147;47.520;18.920;2023-06-14T01:46:30;3.60;;;2.47;;
42518;SDS011;28147;47.520;18.920;2023-06-14T01:48:56;6.57;;;3.10;;
42518;SDS011;28147;47.520;18.920;2023-06-14T01:51:22;7.55;;;2.72;;
42518;SDS011;28147;47.520;18.920;2023-06-14T01:53:47;4.82;;;2.90;;
42518;SDS011;28147;47.520;18.920;2023-06-14T01:56:13;4.93;;;2.53;;
42518;SDS011;28147;47.520;18.920;2023-06-14T01:58:39;4.75;;;2.70;;
42518;SDS011;28147;47.520;18.920;2023-06-14T02:01:05;4.97;;;3.03;;
42518;SDS011;28147;47.520;18.920;2023-06-14T02:03:31;5.85;;;3.28;;
42518;SDS011;28147;47.520;18.920;2023-06-14T02:05:57;5.38;;;3.22;;
42518;SDS011;28147;47.520;18.920;2023-06-14T02:08:23;5.45;;;3.17;;
42518;SDS011;28147;47.520;18.920;2023-06-14T02:10:48;6.47;;;3.03;;
42518;SDS011;28147;47.520;18.920;2023-06-14T02:13:14;6.07;;;3.47;;
42518;SDS011;28147;47.520;18.920;2023-06-14T02:15:40;7.57;;;3.65;;
42518;SDS011;28147;47.520;18.920;2023-06-14T02:18:09;5.90;;;3.55;;
42518;SDS011;28147;47.520;18.920;2023-06-14T02:20:35;6.55;;;3.88;;
42518;SDS011;28147;47.520;18.920;2023-06-14T02:23:00;7.47;;;3.97;;
42518;SDS011;28147;47.520;18.920;2023-06-14T02:25:26;6.38;;;3.85;;
42518;SDS011;28147;47.520;18.920;2023-06-14T02:27:53;5.53;;;3.22;;
42518;SDS011;28147;47.520;18.920;2023-06-14T02:30:20;6.03;;;3.47;;
42518;SDS011;28147;47.520;18.920;2023-06-14T02:32:46;6.85;;;3.78;;
42518;SDS011;28147;47.520;18.920;2023-06-14T02:35:13;6.00;;;3.30;;
42518;SDS011;28147;47.520;18.920;2023-06-14T02:37:39;5.07;;;3.15;;
42518;SDS011;28147;47.520;18.920;2023-06-14T02:40:05;5.80;;;3.42;;
42518;SDS011;28147;47.520;18.920;2023-06-14T02:42:31;7.15;;;4.28;;
42518;SDS011;28147;47.520;18.920;2023-06-14T02:44:56;7.03;;;3.85;;
42518;SDS011;28147;47.520;18.920;2023-06-14T02:47:22;6.50;;;3.88;;
42518;SDS011;28147;47.520;18.920;2023-06-14T02:49:47;6.78;;;3.72;;
42518;SDS011;28147;47.520;18.920;2023-06-14T02:52:12;7.80;;;4.18;;
42518;SDS011;28147;47.520;18.920;2023-06-14T02:54:38;7.15;;;4.07;;
42518;SDS011;28147;47.520;18.920;2023-06-14T02:57:03;8.77;;;3.70;;
42518;SDS011;28147;47.520;18.920;2023-06-14T02:59:29;8.00;;;3.58;;
42518;SDS011;28147;47.520;18.920;2023-06-14T03:01:54;8.32;;;4.53;;
42518;SDS011;28147;47.520;18.920;2023-06-14T03:04:20;8.25;;;4.85;;
42518;SDS011;28147;47.520;18.920;2023-06-14T03:06:45;7.80;;;3.63;;
42518;SDS011;28147;47.520;18.920;2023-06-14T03:09:15;8.43;;;4.50;;
42518;SDS011;28147;47.520;18.920;2023-06-14T03:11:41;7.50;;;3.80;;
42518;SDS011;28147;47.520;18.920;2023-06-14T03:14:06;7.65;;;4.45;;
42518;SDS011;28147;47.520;18.920;2023-06-14T03:16:33;6.78;;;4.18;;
42518;SDS011;28147;47.520;18.920;2023-06-14T03:18:58;6.57;;;4.10;;
42518;SDS011;28147;47.520;18.920;2023-06-14T03:21:24;8.13;;;4.22;;
42518;SDS011;28147;47.520;18.920;2023-06-14T03:23:51;7.07;;;4.47;;
42518;SDS011;28147;47.520;18.920;2023-06-14T03:26:18;10.05;;;4.80;;
42518;SDS011;28147;47.520;18.920;2023-06-14T03:28:44;8.98;;;4.70;;
42518;SDS011;28147;47.520;18.920;2023-06-14T03:31:10;7.60;;;4.80;;
42518;SDS011;28147;47.520;18.920;2023-06-14T03:33:36;6.43;;;3.60;;
42518;SDS011;28147;47.520;18.920;2023-06-14T03:36:02;10.25;;;5.20;;
42518;SDS011;28147;47.520;18.920;2023-06-14T03:38:28;7.28;;;4.38;;
42518;SDS011;28147;47.520;18.920;2023-06-14T03:40:53;8.00;;;4.18;;
42518;SDS011;28147;47.520;18.920;2023-06-14T03:43:18;10.50;;;5.00;;
42518;SDS011;28147;47.520;18.920;2023-06-14T03:45:44;7.63;;;4.93;;
42518;SDS011;28147;47.520;18.920;2023-06-14T03:48:09;8.55;;;5.05;;
42518;SDS011;28147;47.520;18.920;2023-06-14T03:50:35;8.77;;;4.15;;
42518;SDS011;28147;47.520;18.920;2023-06-14T03:53:03;12.02;;;4.50;;
42518;SDS011;28147;47.520;18.920;2023-06-14T03:55:29;7.28;;;4.57;;
42518;SDS011;28147;47.520;18.920;2023-06-14T03:57:56;8.57;;;4.95;;
42518;SDS011;28147;47.520;18.920;2023-06-14T04:00:22;7.00;;;4.57;;
42518;SDS011;28147;47.520;18.920;2023-06-14T04:02:48;6.90;;;4.45;;
42518;SDS011;28147;47.520;18.920;2023-06-14T04:05:13;8.50;;;4.68;;
42518;SDS011;28147;47.520;18.920;2023-06-14T04:07:41;6.72;;;3.90;;
42518;SDS011;28147;47.520;18.920;2023-06-14T04:10:10;7.03;;;4.30;;
42518;SDS011;28147;47.520;18.920;2023-06-14T04:12:37;8.20;;;4.47;;
42518;SDS011;28147;47.520;18.920;2023-06-14T04:15:02;7.60;;;4.47;;
42518;SDS011;28147;47.520;18.920;2023-06-14T04:17:30;6.38;;;3.83;;
42518;SDS011;28147;47.520;18.920;2023-06-14T04:19:57;7.25;;;4.00;;
42518;SDS011;28147;47.520;18.920;2023-06-14T04:22:27;5.75;;;4.03;;
42518;SDS011;28147;47.520;18.920;2023-06-14T04:24:53;9.57;;;4.03;;
42518;SDS011;28147;47.520;18.920;2023-06-14T04:27:21;9.35;;;4.90;;
42518;SDS011;28147;47.520;18.920;2023-06-14T04:29:54;7.63;;;4.47;;
42518;SDS011;28147;47.520;18.920;2023-06-14T04:32:24;8.55;;;4.32;;
42518;SDS011;28147;47.520;18.920;2023-06-14T04:37:20;6.75;;;4.00;;
42518;SDS011;28147;47.520;18.920;2023-06-14T04:39:46;7.18;;;4.22;;
42518;SDS011;28147;47.520;18.920;2023-06-14T04:42:13;6.72;;;4.18;;
42518;SDS011;28147;47.520;18.920;2023-06-14T04:44:40;5.88;;;3.72;;
42518;SDS011;28147;47.520;18.920;2023-06-14T04:47:06;6.95;;;4.25;;
42518;SDS011;28147;47.520;18.920;2023-06-14T04:49:31;6.38;;;3.85;;
42518;SDS011;28147;47.520;18.920;2023-06-14T04:51:59;6.38;;;4.03;;
42518;SDS011;28147;47.520;18.920;2023-06-14T04:54:26;6.32;;;4.28;;
42518;SDS011;28147;47.520;18.920;2023-06-14T04:56:52;5.97;;;3.70;;
42518;SDS011;28147;47.520;18.920;2023-06-14T04:59:20;8.32;;;4.80;;
42518;SDS011;28147;47.520;18.920;2023-06-14T05:01:48;6.18;;;3.72;;
42518;SDS011;28147;47.520;18.920;2023-06-14T05:04:14;8.20;;;4.30;;
42518;SDS011;28147;47.520;18.920;2023-06-14T05:06:41;8.50;;;4.63;;
42518;SDS011;28147;47.520;18.920;2023-06-14T05:09:07;6.72;;;3.88;;
42518;SDS011;28147;47.520;18.920;2023-06-14T05:11:32;10.55;;;4.68;;
42518;SDS011;28147;47.520;18.920;2023-06-14T05:13:58;5.50;;;3.58;;
42518;SDS011;28147;47.520;18.920;2023-06-14T05:16:23;6.28;;;3.92;;
42518;SDS011;28147;47.520;18.920;2023-06-14T05:18:50;7.45;;;4.10;;
42518;SDS011;28147;47.520;18.920;2023-06-14T05:21:17;6.95;;;4.10;;
42518;SDS011;28147;47.520;18.920;2023-06-14T05:23:43;7.55;;;4.05;;
42518;SDS011;28147;47.520;18.920;2023-06-14T05:26:10;8.75;;;4.78;;
42518;SDS011;28147;47.520;18.920;2023-06-14T05:28:35;7.20;;;4.43;;
42518;SDS011;28147;47.520;18.920;2023-06-14T05:31:01;6.68;;;4.70;;
42518;SDS011;28147;47.520;18.920;2023-06-14T05:33:27;5.68;;;4.25;;
42518;SDS011;28147;47.520;18.920;2023-06-14T05:35:52;7.40;;;4.15;;
42518;SDS011;28147;47.520;18.920;2023-06-14T05:38:18;6.88;;;4.13;;
42518;SDS011;28147;47.520;18.920;2023-06-14T05:40:43;5.65;;;3.80;;
42518;SDS011;28147;47.520;18.920;2023-06-14T05:43:08;7.78;;;3.70;;
42518;SDS011;28147;47.520;18.920;2023-06-14T05:45:34;6.72;;;3.88;;
42518;SDS011;28147;47.520;18.920;2023-06-14T05:47:59;6.10;;;3.70;;
42518;SDS011;28147;47.520;18.920;2023-06-14T05:50:25;8.27;;;4.25;;
42518;SDS011;28147;47.520;18.920;2023-06-14T05:52:50;6.60;;;4.10;;
42518;SDS011;28147;47.520;18.920;2023-06-14T05:55:16;7.15;;;3.88;;
42518;SDS011;28147;47.520;18.920;2023-06-14T05:57:42;7.20;;;4.13;;
42518;SDS011;28147;47.520;18.920;2023-06-14T06:00:07;8.40;;;3.70;;
42518;SDS011;28147;47.520;18.920;2023-06-14T06:02:39;6.82;;;4.05;;
42518;SDS011;28147;47.520;18.920;2023-06-14T06:05:09;7.03;;;4.22;;
42518;SDS011;28147;47.520;18.920;2023-06-14T06:07:35;5.38;;;3.67;;
42518;SDS011;28147;47.520;18.920;2023-06-14T06:10:01;5.93;;;3.55;;
42518;SDS011;28147;47.520;18.920;2023-06-14T06:12:27;6.32;;;3.03;;
42518;SDS011;28147;47.520;18.920;2023-06-14T06:14:52;6.30;;;4.03;;
42518;SDS011;28147;47.520;18.920;2023-06-14T06:17:18;7.05;;;3.75;;
42518;SDS011;28147;47.520;18.920;2023-06-14T06:19:43;6.85;;;3.85;;
42518;SDS011;28147;47.520;18.920;2023-06-14T06:22:09;7.10;;;3.75;;
42518;SDS011;28147;47.520;18.920;2023-06-14T06:24:34;6.30;;;4.07;;
42518;SDS011;28147;47.520;18.920;2023-06-14T06:26:59;8.20;;;4.28;;
42518;SDS011;28147;47.520;18.920;2023-06-14T06:29:25;7.57;;;4.25;;
42518;SDS011;28147;47.520;18.920;2023-06-14T06:31:51;6.57;;;4.07;;
42518;SDS011;28147;47.520;18.920;2023-06-14T06:34:16;7.07;;;3.60;;
42518;SDS011;28147;47.520;18.920;2023-06-14T06:36:41;6.68;;;3.75;;
42518;SDS011;28147;47.520;18.920;2023-06-14T06:39:07;5.60;;;2.85;;
42518;SDS011;28147;47.520;18.920;2023-06-14T06:41:35;6.03;;;3.42;;
42518;SDS011;28147;47.520;18.920;2023-06-14T06:44:04;7.78;;;3.80;;
42518;SDS011;28147;47.520;18.920;2023-06-14T06:46:30;6.63;;;3.55;;
42518;SDS011;28147;47.520;18.920;2023-06-14T06:48:56;7.30;;;3.80;;
42518;SDS011;28147;47.520;18.920;2023-06-14T06:51:22;5.57;;;3.40;;
42518;SDS011;28147;47.520;18.920;2023-06-14T06:53:52;7.45;;;3.75;;
42518;SDS011;28147;47.520;18.920;2023-06-14T06:56:18;5.63;;;3.35;;
42518;SDS011;28147;47.520;18.920;2023-06-14T06:58:44;6.20;;;3.67;;
42518;SDS011;28147;47.520;18.920;2023-06-14T07:01:10;9.48;;;3.97;;
42518;SDS011;28147;47.520;18.920;2023-06-14T07:03:36;6.50;;;4.03;;
42518;SDS011;28147;47.520;18.920;2023-06-14T07:06:02;6.57;;;3.92;;
42518;SDS011;28147;47.520;18.920;2023-06-14T07:08:27;6.47;;;4.20;;
42518;SDS011;28147;47.520;18.920;2023-06-14T07:10:53;7.72;;;3.63;;
42518;SDS011;28147;47.520;18.920;2023-06-14T07:13:18;5.78;;;3.90;;
42518;SDS011;28147;47.520;18.920;2023-06-14T07:15:44;7.20;;;3.90;;
42518;SDS011;28147;47.520;18.920;2023-06-14T07:18:09;6.95;;;3.90;;
42518;SDS011;28147;47.520;18.920;2023-06-14T07:20:35;5.75;;;3.58;;
42518;SDS011;28147;47.520;18.920;2023-06-14T07:23:04;5.33;;;3.33;;
42518;SDS011;28147;47.520;18.920;2023-06-14T07:25:30;6.30;;;3.88;;
42518;SDS011;28147;47.520;18.920;2023-06-14T07:27:56;10.48;;;3.53;;
42518;SDS011;28147;47.520;18.920;2023-06-14T07:30:21;6.18;;;3.63;;
42518;SDS011;28147;47.520;18.920;2023-06-14T07:32:51;7.50;;;4.10;;
42518;SDS011;28147;47.520;18.920;2023-06-14T07:35:17;6.03;;;3.13;;
42518;SDS011;28147;47.520;18.920;2023-06-14T07:37:42;7.03;;;3.55;;
42518;SDS011;28147;47.520;18.920;2023-06-14T07:40:08;8.27;;;3.92;;
42518;SDS011;28147;47.520;18.920;2023-06-14T07:42:35;5.80;;;3.55;;
42518;SDS011;28147;47.520;18.920;2023-06-14T07:45:01;6.47;;;2.95;;
42518;SDS011;28147;47.520;18.920;2023-06-14T07:47:27;5.82;;;3.05;;
42518;SDS011;28147;47.520;18.920;2023-06-14T07:49:53;6.68;;;3.47;;
42518;SDS011;28147;47.520;18.920;2023-06-14T07:52:18;7.10;;;3.13;;
42518;SDS011;28147;47.520;18.920;2023-06-14T07:54:44;6.68;;;3.10;;
42518;SDS011;28147;47.520;18.920;2023-06-14T07:57:09;5.25;;;2.90;;
42518;SDS011;28147;47.520;18.920;2023-06-14T07:59:35;5.90;;;3.30;;
42518;SDS011;28147;47.520;18.920;2023-06-14T08:02:00;7.45;;;3.67;;
42518;SDS011;28147;47.520;18.920;2023-06-14T08:04:26;6.03;;;3.47;;
42518;SDS011;28147;47.520;18.920;2023-06-14T08:06:51;6.00;;;3.20;;
42518;SDS011;28147;47.520;18.920;2023-06-14T08:09:17;6.72;;;3.95;;
42518;SDS011;28147;47.520;18.920;2023-06-14T08:11:42;7.22;;;4.00;;
42518;SDS011;28147;47.520;18.920;2023-06-14T08:14:08;8.20;;;3.70;;
42518;SDS011;28147;47.520;18.920;2023-06-14T08:16:33;5.57;;;3.60;;
42518;SDS011;28147;47.520;18.920;2023-06-14T08:18:59;4.55;;;3.08;;
42518;SDS011;28147;47.520;18.920;2023-06-14T08:21:24;8.32;;;4.03;;
42518;SDS011;28147;47.520;18.920;2023-06-14T08:23:52;5.03;;;3.22;;
42518;SDS011;28147;47.520;18.920;2023-06-14T08:26:18;7.40;;;3.67;;
42518;SDS011;28147;47.520;18.920;2023-06-14T08:28:43;6.72;;;3.85;;
42518;SDS011;28147;47.520;18.920;2023-06-14T08:31:09;5.65;;;3.10;;
42518;SDS011;28147;47.520;18.920;2023-06-14T08:33:34;5.68;;;3.40;;
42518;SDS011;28147;47.520;18.920;2023-06-14T08:35:59;5.28;;;2.97;;
42518;SDS011;28147;47.520;18.920;2023-06-14T08:38:25;4.65;;;2.75;;
42518;SDS011;28147;47.520;18.920;2023-06-14T08:40:50;6.40;;;2.90;;
42518;SDS011;28147;47.520;18.920;2023-06-14T08:43:21;5.38;;;2.90;;
42518;SDS011;28147;47.520;18.920;2023-06-14T08:45:47;5.50;;;2.80;;
42518;SDS011;28147;47.520;18.920;2023-06-14T08:48:18;6.13;;;3.67;;
42518;SDS011;28147;47.520;18.920;2023-06-14T08:50:46;5.43;;;3.08;;
42518;SDS011;28147;47.520;18.920;2023-06-14T08:53:13;6.85;;;3.40;;
42518;SDS011;28147;47.520;18.920;2023-06-14T08:55:44;5.72;;;3.58;;
42518;SDS011;28147;47.520;18.920;2023-06-14T08:58:10;6.25;;;3.45;;
42518;SDS011;28147;47.520;18.920;2023-06-14T09:00:39;7.90;;;3.60;;
42518;SDS011;28147;47.520;18.920;2023-06-14T09:03:06;8.73;;;3.75;;
42518;SDS011;28147;47.520;18.920;2023-06-14T09:05:38;5.75;;;3.53;;
42518;SDS011;28147;47.520;18.920;2023-06-14T09:08:03;6.55;;;3.72;;
42518;SDS011;28147;47.520;18.920;2023-06-14T09:10:30;6.57;;;3.58;;
42518;SDS011;28147;47.520;18.920;2023-06-14T09:12:58;6.25;;;3.67;;
42518;SDS011;28147;47.520;18.920;2023-06-14T09:15:26;7.22;;;4.18;;
42518;SDS011;28147;47.520;18.920;2023-06-14T09:17:51;10.85;;;4.10;;
42518;SDS011;28147;47.520;18.920;2023-06-14T09:20:18;8.13;;;4.15;;
42518;SDS011;28147;47.520;18.920;2023-06-14T09:22:43;6.82;;;4.18;;
42518;SDS011;28147;47.520;18.920;2023-06-14T09:25:09;9.52;;;4.00;;
42518;SDS011;28147;47.520;18.920;2023-06-14T09:27:35;7.18;;;4.13;;
42518;SDS011;28147;47.520;18.920;2023-06-14T09:30:04;5.75;;;3.88;;
42518;SDS011;28147;47.520;18.920;2023-06-14T09:32:32;6.20;;;3.97;;
42518;SDS011;28147;47.520;18.920;2023-06-14T09:35:07;5.85;;;3.67;;
42518;SDS011;28147;47.520;18.920;2023-06-14T09:37:34;9.75;;;4.43;;
42518;SDS011;28147;47.520;18.920;2023-06-14T09:40:01;8.70;;;4.30;;
42518;SDS011;28147;47.520;18.920;2023-06-14T09:42:28;7.43;;;4.55;;
42518;SDS011;28147;47.520;18.920;2023-06-14T09:44:55;6.72;;;3.85;;
42518;SDS011;28147;47.520;18.920;2023-06-14T09:47:22;7.28;;;3.88;;
42518;SDS011;28147;47.520;18.920;2023-06-14T09:49:50;7.25;;;4.15;;
42518;SDS011;28147;47.520;18.920;2023-06-14T09:52:19;10.48;;;4.78;;
42518;SDS011;28147;47.520;18.920;2023-06-14T09:57:13;6.38;;;3.22;;
42518;SDS011;28147;47.520;18.920;2023-06-14T09:59:41;7.68;;;3.67;;
42518;SDS011;28147;47.520;18.920;2023-06-14T10:02:18;5.00;;;2.78;;
42518;SDS011;28147;47.520;18.920;2023-06-14T10:05:11;5.50;;;2.30;;
42518;SDS011;28147;47.520;18.920;2023-06-14T10:07:42;4.07;;;2.13;;
42518;SDS011;28147;47.520;18.920;2023-06-14T10:10:18;5.40;;;1.98;;
42518;SDS011;28147;47.520;18.920;2023-06-14T10:12:44;4.15;;;1.88;;
42518;SDS011;28147;47.520;18.920;2023-06-14T10:15:11;4.82;;;2.08;;
42518;SDS011;28147;47.520;18.920;2023-06-14T10:17:52;6.47;;;2.38;;
42518;SDS011;28147;47.520;18.920;2023-06-14T10:20:29;3.90;;;2.33;;
42518;SDS011;28147;47.520;18.920;2023-06-14T10:23:05;3.25;;;2.05;;
42518;SDS011;28147;47.520;18.920;2023-06-14T10:25:35;3.42;;;1.95;;
42518;SDS011;28147;47.520;18.920;2023-06-14T10:28:19;4.30;;;1.77;;
42518;SDS011;28147;47.520;18.920;2023-06-14T10:31:06;4.60;;;1.83;;
42518;SDS011;28147;47.520;18.920;2023-06-14T10:33:32;3.97;;;2.08;;
42518;SDS011;28147;47.520;18.920;2023-06-14T10:38:36;5.53;;;1.98;;
42518;SDS011;28147;47.520;18.920;2023-06-14T10:41:03;3.85;;;1.77;;
42518;SDS011;28147;47.520;18.920;2023-06-14T10:43:29;5.03;;;2.20;;
42518;SDS011;28147;47.520;18.920;2023-06-14T10:48:43;3.08;;;1.65;;
42518;SDS011;28147;47.520;18.920;2023-06-14T10:51:19;2.67;;;1.73;;
42518;SDS011;28147;47.520;18.920;2023-06-14T10:53:48;7.10;;;2.35;;
42518;SDS011;28147;47.520;18.920;2023-06-14T10:56:27;4.68;;;2.15;;
42518;SDS011;28147;47.520;18.920;2023-06-14T10:58:59;4.63;;;2.17;;
42518;SDS011;28147;47.520;18.920;2023-06-14T11:01:37;3.55;;;1.75;;
42518;SDS011;28147;47.520;18.920;2023-06-14T11:04:14;3.70;;;1.90;;
42518;SDS011;28147;47.520;18.920;2023-06-14T11:11:45;3.35;;;2.03;;
42518;SDS011;28147;47.520;18.920;2023-06-14T11:14:11;7.38;;;1.77;;
42518;SDS011;28147;47.520;18.920;2023-06-14T11:16:37;5.10;;;2.00;;
42518;SDS011;28147;47.520;18.920;2023-06-14T11:19:02;3.67;;;1.73;;
42518;SDS011;28147;47.520;18.920;2023-06-14T11:21:32;4.43;;;1.77;;
42518;SDS011;28147;47.520;18.920;2023-06-14T11:23:58;3.47;;;1.90;;
42518;SDS011;28147;47.520;18.920;2023-06-14T11:26:27;5.15;;;2.00;;
42518;SDS011;28147;47.520;18.920;2023-06-14T11:29:00;8.02;;;2.00;;
42518;SDS011;28147;47.520;18.920;2023-06-14T11:31:26;3.03;;;1.63;;
42518;SDS011;28147;47.520;18.920;2023-06-14T11:33:56;5.07;;;2.22;;
42518;SDS011;28147;47.520;18.920;2023-06-14T11:36:22;4.10;;;2.40;;
42518;SDS011;28147;47.520;18.920;2023-06-14T11:38:57;3.50;;;1.98;;
42518;SDS011;28147;47.520;18.920;2023-06-14T11:41:32;3.83;;;2.20;;
42518;SDS011;28147;47.520;18.920;2023-06-14T11:44:00;4.47;;;2.45;;
42518;SDS011;28147;47.520;18.920;2023-06-14T11:46:27;3.47;;;2.15;;
42518;SDS011;28147;47.520;18.920;2023-06-14T11:48:52;4.43;;;2.30;;
42518;SDS011;28147;47.520;18.920;2023-06-14T11:51:18;4.10;;;2.28;;
42518;SDS011;28147;47.520;18.920;2023-06-14T11:53:44;4.30;;;2.20;;
42518;SDS011;28147;47.520;18.920;2023-06-14T11:56:10;5.53;;;2.30;;
42518;SDS011;28147;47.520;18.920;2023-06-14T11:58:36;4.30;;;2.22;;
42518;SDS011;28147;47.520;18.920;2023-06-14T12:01:07;6.78;;;2.50;;
42518;SDS011;28147;47.520;18.920;2023-06-14T12:03:32;6.07;;;3.03;;
42518;SDS011;28147;47.520;18.920;2023-06-14T12:06:02;3.42;;;1.90;;
42518;SDS011;28147;47.520;18.920;2023-06-14T12:08:32;3.85;;;2.08;;
42518;SDS011;28147;47.520;18.920;2023-06-14T12:11:04;6.38;;;2.63;;
42518;SDS011;28147;47.520;18.920;2023-06-14T12:13:40;5.45;;;2.20;;
42518;SDS011;28147;47.520;18.920;2023-06-14T12:16:10;4.75;;;2.28;;
42518;SDS011;28147;47.520;18.920;2023-06-14T12:18:37;5.00;;;2.35;;
42518;SDS011;28147;47.520;18.920;2023-06-14T12:21:04;5.25;;;1.98;;
42518;SDS011;28147;47.520;18.920;2023-06-14T12:26:13;4.50;;;2.53;;
42518;SDS011;28147;47.520;18.920;2023-06-14T12:28:40;6.43;;;3.00;;
42518;SDS011;28147;47.520;18.920;2023-06-14T12:31:07;3.65;;;2.20;;
42518;SDS011;28147;47.520;18.920;2023-06-14T12:33:32;4.00;;;1.95;;
42518;SDS011;28147;47.520;18.920;2023-06-14T12:35:58;3.47;;;2.00;;
42518;SDS011;28147;47.520;18.920;2023-06-14T12:38:24;4.22;;;2.10;;
42518;SDS011;28147;47.520;18.920;2023-06-14T12:40:49;4.00;;;2.35;;
42518;SDS011;28147;47.520;18.920;2023-06-14T12:43:15;6.10;;;2.28;;
42518;SDS011;28147;47.520;18.920;2023-06-14T12:45:40;5.95;;;2.00;;
42518;SDS011;28147;47.520;18.920;2023-06-14T12:48:05;3.85;;;2.20;;
42518;SDS011;28147;47.520;18.920;2023-06-14T12:50:33;4.90;;;2.47;;
42518;SDS011;28147;47.520;18.920;2023-06-14T12:52:58;6.50;;;2.28;;
42518;SDS011;28147;47.520;18.920;2023-06-14T12:55:24;4.35;;;1.95;;
42518;SDS011;28147;47.520;18.920;2023-06-14T12:57:49;3.80;;;1.92;;
42518;SDS011;28147;47.520;18.920;2023-06-14T13:00:16;5.85;;;2.30;;
42518;SDS011;28147;47.520;18.920;2023-06-14T13:02:43;4.00;;;2.38;;
42518;SDS011;28147;47.520;18.920;2023-06-14T13:05:08;4.32;;;2.03;;
42518;SDS011;28147;47.520;18.920;2023-06-14T13:07:34;2.88;;;1.90;;
42518;SDS011;28147;47.520;18.920;2023-06-14T13:10:00;3.20;;;2.00;;
42518;SDS011;28147;47.520;18.920;2023-06-14T13:12:25;3.55;;;1.90;;
42518;SDS011;28147;47.520;18.920;2023-06-14T13:14:51;3.78;;;2.10;;
42518;SDS011;28147;47.520;18.920;2023-06-14T13:17:16;3.53;;;1.92;;
42518;SDS011;28147;47.520;18.920;2023-06-14T13:19:42;3.13;;;1.67;;
42518;SDS011;28147;47.520;18.920;2023-06-14T13:22:07;3.80;;;2.20;;
42518;SDS011;28147;47.520;18.920;2023-06-14T13:24:34;7.80;;;2.30;;
42518;SDS011;28147;47.520;18.920;2023-06-14T13:26:59;3.33;;;2.00;;
42518;SDS011;28147;47.520;18.920;2023-06-14T13:29:25;3.42;;;2.03;;
42518;SDS011;28147;47.520;18.920;2023-06-14T13:31:51;4.32;;;1.55;;
42518;SDS011;28147;47.520;18.920;2023-06-14T13:34:18;2.58;;;1.58;;
42518;SDS011;28147;47.520;18.920;2023-06-14T13:36:43;2.97;;;1.55;;
42518;SDS011;28147;47.520;18.920;2023-06-14T13:39:09;4.10;;;2.25;;
42518;SDS011;28147;47.520;18.920;2023-06-14T13:41:35;3.03;;;2.13;;
42518;SDS011;28147;47.520;18.920;2023-06-14T13:44:01;4.35;;;1.77;;
42518;SDS011;28147;47.520;18.920;2023-06-14T13:46:29;5.32;;;1.90;;
42518;SDS011;28147;47.520;18.920;2023-06-14T13:48:55;4.40;;;1.90;;
42518;SDS011;28147;47.520;18.920;2023-06-14T13:51:20;3.95;;;2.20;;
42518;SDS011;28147;47.520;18.920;2023-06-14T13:53:49;4.30;;;2.03;;
42518;SDS011;28147;47.520;18.920;2023-06-14T13:56:15;3.65;;;2.00;;
42518;SDS011;28147;47.520;18.920;2023-06-14T13:58:41;4.40;;;1.65;;
42518;SDS011;28147;47.520;18.920;2023-06-14T14:01:07;3.85;;;2.08;;
42518;SDS011;28147;47.520;18.920;2023-06-14T14:03:33;3.08;;;1.98;;
42518;SDS011;28147;47.520;18.920;2023-06-14T14:06:00;2.85;;;1.73;;
42518;SDS011;28147;47.520;18.920;2023-06-14T14:08:29;5.22;;;2.30;;
42518;SDS011;28147;47.520;18.920;2023-06-14T14:10:55;5.07;;;2.05;;
42518;SDS011;28147;47.520;18.920;2023-06-14T14:13:21;3.15;;;1.67;;
42518;SDS011;28147;47.520;18.920;2023-06-14T14:15:47;3.50;;;1.90;;
42518;SDS011;28147;47.520;18.920;2023-06-14T14:18:14;2.75;;;1.60;;
42518;SDS011;28147;47.520;18.920;2023-06-14T14:20:40;2.53;;;1.45;;
42518;SDS011;28147;47.520;18.920;2023-06-14T14:23:05;4.07;;;1.83;;
42518;SDS011;28147;47.520;18.920;2023-06-14T14:25:31;4.47;;;1.80;;
42518;SDS011;28147;47.520;18.920;2023-06-14T14:27:56;10.68;;;2.67;;
42518;SDS011;28147;47.520;18.920;2023-06-14T14:30:21;2.95;;;1.85;;
42518;SDS011;28147;47.520;18.920;2023-06-14T14:32:48;3.53;;;1.77;;
42518;SDS011;28147;47.520;18.920;2023-06-14T14:35:16;4.40;;;2.28;;
42518;SDS011;28147;47.520;18.920;2023-06-14T14:37:42;4.53;;;2.38;;
42518;SDS011;28147;47.520;18.920;2023-06-14T14:40:07;3.15;;;1.55;;
42518;SDS011;28147;47.520;18.920;2023-06-14T14:42:34;3.22;;;2.00;;
42518;SDS011;28147;47.520;18.920;2023-06-14T14:45:00;3.47;;;1.88;;
42518;SDS011;28147;47.520;18.920;2023-06-14T14:47:25;3.75;;;1.52;;
42518;SDS011;28147;47.520;18.920;2023-06-14T14:49:51;3.75;;;1.90;;
42518;SDS011;28147;47.520;18.920;2023-06-14T14:52:16;4.55;;;2.03;;